createdAt,value
2019-01-21T00:04:13.533Z,25.27
2019-01-21T00:09:17.166Z,24.83
2019-01-21T00:14:20.581Z,23.90
2019-01-21T00:19:23.649Z,23.47
2019-01-21T00:24:26.737Z,22.97
2019-01-21T00:29:30.058Z,24.37
2019-01-21T00:34:33.126Z,24.23
2019-01-21T00:39:37.318Z,24.93
2019-01-21T00:44:40.849Z,23.03
2019-01-21T00:49:44.507Z,24.05
2019-01-21T00:54:48.157Z,23.40
2019-01-21T00:59:51.563Z,23.17
2019-01-21T01:04:54.889Z,22.00
2019-01-21T01:09:57.961Z,23.93
2019-01-21T01:15:01.042Z,22.73
2019-01-21T01:20:07.518Z,22.80
2019-01-21T01:25:11.363Z,22.40
2019-01-21T01:30:16.446Z,22.97
2019-01-21T01:35:19.529Z,21.00
2019-01-21T01:40:22.773Z,20.23
2019-01-21T01:45:27.302Z,21.00
2019-01-21T01:50:31.108Z,21.17
2019-01-21T01:55:34.580Z,19.97
2019-01-21T02:00:37.839Z,19.57
2019-01-21T02:05:40.926Z,21.37
2019-01-21T02:10:44.336Z,19.53
2019-01-21T02:15:48.075Z,20.37
2019-01-21T02:20:52.770Z,21.27
2019-01-21T02:25:59.250Z,21.10
2019-01-21T02:31:11.899Z,20.50
2019-01-21T02:36:41.260Z,19.60
2019-01-21T02:41:44.607Z,20.63
2019-01-21T02:47:02.885Z,20.53
2019-01-21T02:52:20.918Z,19.30
2019-01-21T02:57:28.485Z,19.47
2019-01-21T03:02:49.893Z,19.57
2019-01-21T03:08:15.882Z,20.20
2019-01-21T03:13:28.447Z,20.10
2019-01-21T03:18:56.093Z,19.87
2019-01-21T03:24:11.692Z,19.33
2019-01-21T03:29:34.102Z,18.37
2019-01-21T03:34:45.248Z,18.87
2019-01-21T03:39:55.729Z,20.47
2019-01-21T03:45:03.128Z,19.37
2019-01-21T03:50:21.603Z,20.20
2019-01-21T03:55:25.075Z,19.07
2019-01-21T04:00:29.690Z,19.23
2019-01-21T04:05:34.589Z,19.10
2019-01-21T04:10:45.422Z,19.00
2019-01-21T04:16:01.826Z,19.67
2019-01-21T04:21:24.723Z,19.30
2019-01-21T04:26:31.511Z,19.07
2019-01-21T04:31:52.518Z,19.03
2019-01-21T04:37:11.201Z,19.87
2019-01-21T04:42:26.583Z,19.20
2019-01-21T04:47:34.313Z,20.00
2019-01-21T04:52:46.577Z,19.07
2019-01-21T04:57:53.063Z,19.13
2019-01-21T05:03:06.974Z,18.63
2019-01-21T05:08:32.807Z,19.03
2019-01-21T05:14:01.733Z,17.98
2019-01-21T05:19:19.524Z,19.20
2019-01-21T05:24:31.764Z,19.73
2019-01-21T05:29:42.608Z,20.07
2019-01-21T05:34:49.094Z,19.33
2019-01-21T05:39:56.700Z,18.20
2019-01-21T05:45:08.995Z,20.20
2019-01-21T05:50:26.825Z,19.73
2019-01-21T05:55:31.441Z,19.33
2019-01-21T06:00:53.088Z,20.53
2019-01-21T06:06:09.842Z,20.07
2019-01-21T06:11:14.458Z,19.63
2019-01-21T06:16:32.529Z,18.67
2019-01-21T06:21:39.807Z,19.00
2019-01-21T06:27:21.237Z,17.77
2019-01-21T06:32:36.724Z,22.07
2019-01-21T06:37:49.363Z,19.70
2019-01-21T06:43:10.770Z,22.23
2019-01-21T06:48:46.272Z,20.73
2019-01-21T06:54:15.550Z,23.47
2019-01-21T06:59:44.877Z,27.83
2019-01-21T07:05:05.938Z,28.30
2019-01-21T07:10:10.853Z,28.13
2019-01-21T07:15:27.393Z,21.87
2019-01-21T07:20:31.997Z,21.63
2019-01-21T07:25:38.802Z,20.63
2019-01-21T07:31:01.713Z,24.63
2019-01-21T07:36:08.974Z,21.53
2019-01-21T07:41:17.006Z,21.63
2019-01-21T07:46:27.797Z,22.20
2019-01-21T07:51:35.628Z,22.43
2019-01-21T07:56:43.169Z,21.77
2019-01-21T08:01:47.778Z,22.50
2019-01-21T08:07:07.593Z,21.57
2019-01-21T08:12:18.412Z,22.43
2019-01-21T08:17:26.069Z,25.37
2019-01-21T08:22:56.401Z,24.50
2019-01-21T08:28:11.749Z,24.27
2019-01-21T08:33:29.853Z,23.63
2019-01-21T08:38:40.493Z,21.80
2019-01-21T08:43:53.849Z,21.73
2019-01-21T08:49:06.302Z,21.47
2019-01-21T08:54:13.839Z,22.37
2019-01-21T08:59:18.441Z,21.20
2019-01-21T09:04:33.874Z,21.77
2019-01-21T09:09:38.754Z,22.43
2019-01-21T09:14:49.621Z,20.23
2019-01-21T09:20:00.241Z,21.27
2019-01-21T09:25:24.926Z,22.00
2019-01-21T09:30:52.989Z,20.80
2019-01-21T09:36:16.075Z,21.80
2019-01-21T09:41:23.460Z,22.00
2019-01-21T09:46:33.985Z,22.20
2019-01-21T09:51:37.893Z,23.03
2019-01-21T09:56:41.541Z,21.60
2019-01-21T10:01:45.551Z,22.20
2019-01-21T10:06:50.217Z,23.63
2019-01-21T10:12:11.525Z,23.90
2019-01-21T10:17:16.482Z,23.37
2019-01-21T10:22:32.114Z,22.50
2019-01-21T10:27:47.605Z,23.73
2019-01-21T10:33:03.137Z,23.23
2019-01-21T10:38:24.393Z,24.27
2019-01-21T10:43:37.269Z,23.93
2019-01-21T10:48:50.298Z,23.03
2019-01-21T10:53:59.923Z,22.67
2019-01-21T10:59:10.942Z,25.10
2019-01-21T11:04:17.430Z,23.67
2019-01-21T11:09:26.731Z,24.03
2019-01-21T11:14:50.338Z,22.93
2019-01-21T11:20:04.276Z,22.60
2019-01-21T11:25:28.685Z,22.40
2019-01-21T11:30:33.295Z,24.07
2019-01-21T11:35:38.137Z,24.03
2019-01-21T11:40:54.793Z,24.30
2019-01-21T11:46:14.745Z,24.37
2019-01-21T11:51:19.362Z,23.43
2019-01-21T11:56:34.817Z,23.60
2019-01-21T12:01:45.508Z,24.07
2019-01-21T12:07:08.709Z,24.67
2019-01-21T12:12:13.607Z,23.93
2019-01-21T12:17:22.741Z,22.93
2019-01-21T12:22:56.602Z,22.90
2019-01-21T12:28:04.107Z,22.83
2019-01-21T12:33:08.710Z,22.50
2019-01-21T12:38:28.535Z,20.70
2019-01-21T12:43:59.555Z,20.80
2019-01-21T12:49:06.035Z,19.43
2019-01-21T12:54:19.628Z,19.17
2019-01-21T12:59:30.178Z,18.23
2019-01-21T13:04:37.449Z,18.50
2019-01-21T13:09:57.647Z,17.63
2019-01-21T13:15:19.138Z,17.30
2019-01-21T13:20:43.707Z,16.70
2019-01-21T13:25:58.777Z,17.23
2019-01-21T13:31:15.693Z,17.00
2019-01-21T13:36:20.305Z,17.63
2019-01-21T13:41:24.927Z,18.40
2019-01-21T13:46:29.840Z,18.27
2019-01-21T13:52:06.133Z,18.57
2019-01-21T13:57:12.898Z,17.00
2019-01-21T14:02:19.697Z,16.87
2019-01-21T14:07:46.662Z,16.90
2019-01-21T14:12:59.715Z,16.97
2019-01-21T14:18:21.136Z,17.13
2019-01-21T14:23:33.255Z,17.10
2019-01-21T14:28:51.506Z,17.12
2019-01-21T14:34:03.566Z,15.90
2019-01-21T14:39:25.307Z,17.30
2019-01-21T14:44:51.365Z,17.70
2019-01-21T14:49:58.092Z,18.70
2019-01-21T14:55:10.245Z,18.80
2019-01-21T15:00:19.543Z,18.93
2019-01-21T15:05:24.196Z,19.23
2019-01-21T15:10:29.082Z,19.63
2019-01-21T15:15:44.636Z,21.43
2019-01-21T15:20:57.651Z,22.43
2019-01-21T15:26:03.414Z,22.63
2019-01-21T15:31:10.990Z,21.73
2019-01-21T15:36:40.133Z,20.80
2019-01-21T15:41:55.643Z,20.70
2019-01-21T15:47:10.901Z,23.20
2019-01-21T15:52:26.472Z,22.50
2019-01-21T15:57:35.961Z,22.40
2019-01-21T16:02:40.562Z,23.37
2019-01-21T16:07:52.568Z,24.47
2019-01-21T16:13:05.974Z,24.47
2019-01-21T16:18:25.919Z,22.23
2019-01-21T16:23:36.430Z,21.70
2019-01-21T16:28:43.673Z,21.70
2019-01-21T16:33:58.996Z,21.90
2019-01-21T16:39:04.442Z,21.97
2019-01-21T16:44:07.512Z,22.53
2019-01-21T16:49:10.586Z,23.13
2019-01-21T16:54:13.976Z,22.60
2019-01-21T16:59:17.683Z,21.07
2019-01-21T17:04:21.113Z,22.47
2019-01-21T17:09:24.193Z,24.73
2019-01-21T17:14:27.542Z,27.40
2019-01-21T17:19:30.662Z,30.00
2019-01-21T17:24:34.069Z,29.40
2019-01-21T17:29:37.473Z,27.20
2019-01-21T17:34:44.881Z,26.12
2019-01-21T17:39:47.985Z,26.40
2019-01-21T17:44:51.063Z,26.90
2019-01-21T17:49:54.702Z,28.77
2019-01-21T17:54:58.106Z,28.73
2019-01-21T18:00:01.508Z,29.20
2019-01-21T18:05:05.853Z,29.75
2019-01-21T18:10:12.776Z,31.73
2019-01-21T18:15:16.256Z,31.60
2019-01-21T18:20:21.717Z,29.67
2019-01-21T18:25:25.139Z,27.00
2019-01-21T18:30:28.216Z,27.43
2019-01-21T18:35:31.890Z,27.07
2019-01-21T18:40:38.316Z,27.33
2019-01-21T18:45:41.900Z,29.07
2019-01-21T18:50:45.554Z,29.53
2019-01-21T18:55:48.636Z,28.47
2019-01-21T19:00:51.959Z,29.17
2019-01-21T19:05:55.649Z,29.97
2019-01-21T19:10:58.792Z,28.20
2019-01-21T19:16:02.201Z,27.07
2019-01-21T19:21:05.276Z,27.13
2019-01-21T19:26:08.690Z,30.57
2019-01-21T19:31:12.429Z,30.40
2019-01-21T19:36:15.848Z,29.03
2019-01-21T19:41:19.579Z,29.23
2019-01-21T19:46:22.639Z,28.23
2019-01-21T19:51:25.987Z,30.73
2019-01-21T19:56:29.075Z,31.67
2019-01-21T20:01:32.412Z,34.40
2019-01-21T20:06:35.486Z,35.57
2019-01-21T20:11:39.057Z,34.70
2019-01-21T20:16:42.728Z,35.63
2019-01-21T20:21:46.143Z,37.63
2019-01-21T20:26:49.537Z,35.50
2019-01-21T20:31:52.946Z,31.50
2019-01-21T20:36:56.058Z,32.20
2019-01-21T20:41:59.153Z,30.73
2019-01-21T20:47:02.555Z,29.87
2019-01-21T20:52:05.629Z,31.93
2019-01-21T20:57:08.707Z,30.20
2019-01-21T21:02:12.545Z,31.00
2019-01-21T21:07:17.027Z,31.80
2019-01-21T21:12:25.822Z,31.67
2019-01-21T21:17:24.934Z,31.07
2019-01-21T21:22:28.613Z,31.80
2019-01-21T21:27:31.994Z,31.37
2019-01-21T21:32:35.803Z,31.47
2019-01-21T21:37:38.892Z,31.40
2019-01-21T21:42:41.995Z,30.60
2019-01-21T21:47:45.065Z,33.00
2019-01-21T21:52:48.483Z,29.50
2019-01-21T21:57:51.741Z,29.07
2019-01-21T22:02:55.225Z,30.43
2019-01-21T22:07:58.308Z,30.43
2019-01-21T22:13:04.569Z,28.27
2019-01-21T22:18:08.238Z,31.17
2019-01-21T22:23:11.603Z,30.87
2019-01-21T22:28:15.309Z,31.53
2019-01-21T22:33:18.717Z,30.23
2019-01-21T22:38:22.127Z,31.40
2019-01-21T22:43:25.201Z,32.20
2019-01-21T22:48:28.870Z,31.07
2019-01-21T22:53:32.276Z,31.63
2019-01-21T22:58:35.358Z,31.63
2019-01-21T23:03:38.784Z,31.53
2019-01-21T23:08:42.370Z,31.03
2019-01-21T23:13:45.747Z,29.92
2019-01-21T23:18:49.495Z,30.07
2019-01-21T23:23:53.278Z,30.70
2019-01-21T23:28:56.365Z,31.30
2019-01-21T23:33:59.785Z,30.40
2019-01-21T23:39:05.091Z,29.60
2019-01-21T23:44:08.499Z,29.67
2019-01-21T23:49:11.936Z,29.57
2019-01-21T23:54:15.322Z,31.37
2019-01-21T23:59:18.781Z,30.73
